createdAt,value
2023-04-03T00:02:20.686Z,100101.03
2023-04-03T00:05:20.608Z,100097.59
2023-04-03T00:08:20.663Z,100088.53
2023-04-03T00:11:20.636Z,100097.66
2023-04-03T00:14:20.615Z,100091.72
2023-04-03T00:17:20.605Z,100097.00
2023-04-03T00:20:20.644Z,100093.47
2023-04-03T00:23:20.647Z,100090.06
2023-04-03T00:26:20.653Z,100084.34
2023-04-03T00:29:20.607Z,100099.69
2023-04-03T00:32:20.626Z,100108.25
2023-04-03T00:35:23.655Z,100107.31
2023-04-03T00:38:23.630Z,100104.97
2023-04-03T00:41:23.625Z,100116.13
2023-04-03T00:44:33.612Z,100114.69
2023-04-03T00:47:33.638Z,100121.03
2023-04-03T00:50:33.639Z,100133.22
2023-04-03T00:53:37.623Z,100136.75
2023-04-03T00:56:39.585Z,100118.47
2023-04-03T00:59:42.646Z,100142.84
2023-04-03T01:02:42.616Z,100129.53
2023-04-03T01:05:42.650Z,100145.72
2023-04-03T01:08:42.613Z,100116.03
2023-04-03T01:11:42.656Z,100137.34
2023-04-03T01:14:44.428Z,100147.00
2023-04-03T01:17:48.617Z,100147.16
2023-04-03T01:20:48.621Z,100148.81
2023-04-03T01:23:55.637Z,100142.97
2023-04-03T01:26:55.641Z,100145.72
2023-04-03T01:29:56.603Z,100151.84
2023-04-03T01:32:56.669Z,100149.50
2023-04-03T01:35:56.650Z,100160.78
2023-04-03T01:38:56.650Z,100158.38
2023-04-03T01:41:56.667Z,100154.06
2023-04-03T01:44:56.599Z,100165.41
2023-04-03T01:47:56.652Z,100132.53
2023-04-03T01:50:56.612Z,100161.38
2023-04-03T01:53:56.624Z,100171.84
2023-04-03T01:56:56.616Z,100170.94
2023-04-03T01:59:56.642Z,100154.91
2023-04-03T02:03:05.634Z,100146.44
2023-04-03T02:06:05.604Z,100160.84
2023-04-03T02:09:05.647Z,100159.16
2023-04-03T02:12:05.615Z,100134.72
2023-04-03T02:15:05.632Z,100161.59
2023-04-03T02:18:07.695Z,100153.97
2023-04-03T02:21:07.589Z,100159.16
2023-04-03T02:24:07.631Z,100156.66
2023-04-03T02:27:07.634Z,100162.59
2023-04-03T02:30:07.630Z,100166.69
2023-04-03T02:33:07.679Z,100175.72
2023-04-03T02:36:08.664Z,100182.34
2023-04-03T02:39:08.598Z,100168.22
2023-04-03T02:42:08.623Z,100164.88
2023-04-03T02:45:08.621Z,100180.13
2023-04-03T02:48:08.642Z,100185.78
2023-04-03T02:51:08.594Z,100182.56
2023-04-03T02:54:08.625Z,100178.53
2023-04-03T02:57:09.679Z,100175.13
2023-04-03T03:00:09.633Z,100151.22
2023-04-03T03:03:09.643Z,100178.31
2023-04-03T03:06:13.651Z,100190.53
2023-04-03T03:08:52.768Z,100176.25
2023-04-03T03:11:39.602Z,100178.69
2023-04-03T03:14:18.719Z,100186.69
2023-04-03T03:17:05.648Z,100166.69
2023-04-03T03:19:51.603Z,100182.25
2023-04-03T03:22:51.613Z,100185.13
2023-04-03T03:25:55.630Z,100191.44
2023-04-03T03:28:55.606Z,100193.44
2023-04-03T03:31:55.647Z,100196.78
2023-04-03T03:34:55.621Z,100193.56
2023-04-03T03:37:55.581Z,100183.63
2023-04-03T03:40:55.629Z,100212.63
2023-04-03T03:43:55.593Z,100186.72
2023-04-03T03:46:55.672Z,100207.84
2023-04-03T03:49:55.634Z,100204.38
2023-04-03T03:52:55.616Z,100209.25
2023-04-03T03:55:55.598Z,100204.09
2023-04-03T03:58:56.635Z,100164.94
2023-04-03T04:01:57.656Z,100172.13
2023-04-03T04:04:57.626Z,100193.66
2023-04-03T04:07:57.652Z,100199.56
2023-04-03T04:10:57.601Z,100207.81
2023-04-03T04:13:57.626Z,100205.22
2023-04-03T04:16:57.711Z,100207.66
2023-04-03T04:19:57.594Z,100192.09
2023-04-03T04:22:57.617Z,100193.63
2023-04-03T04:25:59.578Z,100220.91
2023-04-03T04:28:53.605Z,100216.63
2023-04-03T04:31:39.613Z,100222.75
2023-04-03T04:34:39.627Z,100228.84
2023-04-03T04:37:39.594Z,100231.44
2023-04-03T04:40:39.647Z,100231.66
2023-04-03T04:43:39.635Z,100223.94
2023-04-03T04:46:39.668Z,100230.06
2023-04-03T04:49:39.600Z,100235.44
2023-04-03T04:52:39.618Z,100245.00
2023-04-03T04:55:39.617Z,100242.31
2023-04-03T04:58:39.590Z,100243.28
2023-04-03T05:01:39.709Z,100245.81
2023-04-03T05:04:41.603Z,100246.78
2023-04-03T05:07:43.649Z,100239.63
2023-04-03T05:10:43.590Z,100233.31
2023-04-03T05:13:43.631Z,100246.94
2023-04-03T05:16:43.633Z,100245.78
2023-04-03T05:19:43.644Z,100259.28
2023-04-03T05:22:44.619Z,100254.91
2023-04-03T05:25:44.611Z,100235.12
2023-04-03T05:28:44.601Z,100243.91
2023-04-03T05:31:45.666Z,100226.13
2023-04-03T05:34:45.582Z,100253.13
2023-04-03T05:37:45.606Z,100226.75
2023-04-03T05:40:51.625Z,100233.34
2023-04-03T05:43:53.124Z,100229.53
2023-04-03T05:46:52.628Z,100255.09
2023-04-03T05:49:53.692Z,100260.66
2023-04-03T05:52:58.619Z,100249.84
2023-04-03T05:55:59.616Z,100269.81
2023-04-03T05:59:01.586Z,100252.62
2023-04-03T06:02:01.850Z,100269.88
2023-04-03T06:05:05.715Z,100234.44
2023-04-03T06:08:19.678Z,100254.56
2023-04-03T06:11:40.643Z,100264.16
2023-04-03T06:15:16.328Z,100266.69
2023-04-03T06:18:16.729Z,100268.03
2023-04-03T06:21:24.137Z,100275.19
2023-04-03T06:24:32.661Z,100270.41
2023-04-03T06:27:32.619Z,100243.31
2023-04-03T06:30:34.710Z,100221.09
2023-04-03T06:33:34.698Z,100278.63
2023-04-03T06:36:34.591Z,100270.19
2023-04-03T06:39:36.839Z,100265.78
2023-04-03T06:42:43.815Z,100282.88
2023-04-03T06:46:24.709Z,100239.56
2023-04-03T06:49:33.618Z,100275.75
2023-04-03T06:52:33.689Z,100285.81
2023-04-03T06:55:40.172Z,100280.25
2023-04-03T06:58:40.587Z,100256.78
2023-04-03T07:01:48.716Z,100294.78
2023-04-03T07:04:54.639Z,100268.38
2023-04-03T07:08:00.520Z,100303.38
2023-04-03T07:11:07.641Z,100294.87
2023-04-03T07:14:10.644Z,100222.25
2023-04-03T07:17:15.663Z,100313.19
2023-04-03T07:20:15.702Z,100322.09
2023-04-03T07:23:25.606Z,100314.66
2023-04-03T07:26:25.626Z,100314.44
2023-04-03T07:29:28.601Z,100295.63
2023-04-03T07:32:28.731Z,100323.50
2023-04-03T07:35:28.586Z,100335.56
2023-04-03T07:45:42.686Z,100333.13
2023-04-03T07:48:43.754Z,100372.66
2023-04-03T07:51:44.642Z,100302.91
2023-04-03T07:58:20.819Z,100337.06
2023-04-03T08:01:26.611Z,100340.41
2023-04-03T08:04:26.632Z,100336.72
2023-04-03T08:07:26.639Z,100330.88
2023-04-03T08:10:26.635Z,100342.69
2023-04-03T08:13:35.620Z,100348.06
2023-04-03T08:16:40.716Z,100342.50
2023-04-03T08:20:02.925Z,100320.88
2023-04-03T08:23:10.627Z,100179.66
2023-04-03T08:26:34.899Z,100321.19
2023-04-03T08:29:36.663Z,100343.50
2023-04-03T08:32:36.665Z,100353.84
2023-04-03T08:35:38.221Z,100333.59
2023-04-03T08:38:37.645Z,100358.47
2023-04-03T08:41:44.652Z,100354.81
2023-04-03T08:45:07.639Z,100356.38
2023-04-03T08:48:15.635Z,100346.50
2023-04-03T08:51:28.626Z,100355.84
2023-04-03T08:54:48.623Z,100359.41
2023-04-03T08:57:50.730Z,100347.31
2023-04-03T09:01:12.654Z,100364.38
2023-04-03T09:04:13.929Z,100357.69
2023-04-03T09:07:21.615Z,100388.50
2023-04-03T09:10:29.447Z,100363.66
2023-04-03T09:13:32.747Z,100355.44
2023-04-03T09:17:11.637Z,100376.75
2023-04-03T09:20:18.103Z,100383.72
2023-04-03T09:23:48.597Z,100386.59
2023-04-03T09:27:01.664Z,100375.00
2023-04-03T09:30:04.613Z,100374.03
2023-04-03T09:33:09.718Z,100375.91
2023-04-03T09:36:17.025Z,100392.41
2023-04-03T09:39:32.646Z,100377.34
2023-04-03T09:42:37.611Z,100393.28
2023-04-03T09:46:06.631Z,100405.31
2023-04-03T09:49:27.666Z,100398.75
2023-04-03T09:52:40.512Z,100414.66
2023-04-03T09:55:44.619Z,100407.09
2023-04-03T09:58:53.692Z,100364.25
2023-04-03T10:02:18.730Z,100402.47
2023-04-03T10:05:47.718Z,100405.72
2023-04-03T10:08:49.651Z,100419.28
2023-04-03T10:12:03.360Z,100415.66
2023-04-03T10:15:18.930Z,100432.63
2023-04-03T10:18:30.710Z,100403.28
2023-04-03T10:21:43.645Z,100406.41
2023-04-03T10:25:11.651Z,100421.94
2023-04-03T10:28:15.681Z,100392.75
